Time;durP1;ratioP1;P1;durP2;ratioP2;P2;SDS_P1;SDS_P2;PMS_P1;PMS_P2;Temp;Humidity;BMP_temperature;BMP_pressure;BME280_temperature;BME280_humidity;BME280_pressure;Samples;Min_cycle;Max_cycle;Signal;HPM_P1;HPM_P2
2023/10/02 00:00:41;;;;;;;9.07;6.80;;;;;;;18.45;84.66;100988.88;5066238;28;20301;-82
2023/10/02 00:03:09;;;;;;;9.73;7.30;;;;;;;18.34;82.14;101018.41;5067424;28;20206;-83
2023/10/02 00:05:51;;;;;;;7.83;6.77;;;;;;;18.38;84.07;101017.38;5069297;28;20204;-83
2023/10/02 00:08:31;;;;;;;8.83;7.00;;;;;;;18.46;84.10;100999.38;5070354;28;20232;-83
2023/10/02 00:11:05;;;;;;;7.20;6.10;;;;;;;18.51;85.07;100999.19;5069999;28;20227;-83
2023/10/02 00:13:32;;;;;;;8.17;6.87;;;;;;;18.40;85.97;100973.22;5069948;28;20258;-82
2023/10/02 00:15:59;;;;;;;7.83;7.03;;;;;;;18.36;83.09;100986.66;5070288;28;20208;-83
2023/10/02 00:18:27;;;;;;;9.67;6.70;;;;;;;18.42;80.32;101066.53;5070696;28;20212;-83
2023/10/02 00:21:17;;;;;;;8.60;7.40;;;;;;;18.54;82.30;101059.88;5070212;28;20220;-83
2023/10/02 00:23:59;;;;;;;8.87;6.70;;;;;;;18.57;83.24;101045.66;5070615;28;20267;-83
2023/10/02 00:26:26;;;;;;;7.60;6.67;;;;;;;18.56;82.77;101043.94;5070590;28;20216;-84
2023/10/02 00:28:52;;;;;;;8.37;7.23;;;;;;;18.56;81.98;101057.19;5070844;28;20234;-81
2023/10/02 00:31:33;;;;;;;7.63;6.90;;;;;;;18.55;82.47;101064.25;5070880;28;20229;-83
2023/10/02 00:33:59;;;;;;;8.00;6.70;;;;;;;18.52;82.62;101047.66;5070402;28;20219;-83
2023/10/02 00:36:29;;;;;;;8.13;7.33;;;;;;;18.45;80.32;101084.94;5070325;28;20212;-85
2023/10/02 00:39:24;;;;;;;10.40;7.00;;;;;;;18.42;83.00;101065.69;5052279;28;20217;-83
2023/10/02 00:42:10;;;;;;;9.17;6.87;;;;;;;18.43;82.83;101046.25;5078446;28;20234;-83
2023/10/02 00:44:51;;;;;;;7.33;6.43;;;;;;;18.52;82.40;101053.78;5069145;28;20200;-83
2023/10/02 00:47:35;;;;;;;8.27;7.10;;;;;;;18.55;79.40;101110.97;5077238;28;20203;-82
2023/10/02 00:50:08;;;;;;;7.60;6.67;;;;;;;18.54;81.05;101098.69;5076605;28;20256;-83
2023/10/02 00:52:40;;;;;;;8.60;7.37;;;;;;;18.54;80.47;101096.88;5071216;28;20206;-84
2023/10/02 00:55:10;;;;;;;7.40;6.33;;;;;;;18.61;78.41;101127.47;5060106;28;20216;-83
2023/10/02 00:57:38;;;;;;;8.40;7.43;;;;;;;18.60;78.59;101127.50;5060184;28;20211;-85
2023/10/02 01:00:17;;;;;;;8.70;6.93;;;;;;;18.60;79.63;101138.09;5053787;28;20235;-83
2023/10/02 01:02:46;;;;;;;7.93;6.67;;;;;;;18.70;78.13;101157.09;5066758;28;20264;-85
2023/10/02 01:05:16;;;;;;;9.13;7.33;;;;;;;18.74;77.85;101169.25;5063642;28;20205;-84
2023/10/02 01:07:46;;;;;;;10.27;6.80;;;;;;;18.71;77.49;101166.72;5064572;28;20673;-80
2023/10/02 01:10:18;;;;;;;8.43;7.10;;;;;;;18.75;77.48;101186.84;5057112;28;20650;-84
2023/10/02 01:12:49;;;;;;;8.63;7.07;;;;;;;18.77;78.42;101156.78;5058533;28;20569;-83
2023/10/02 01:15:19;;;;;;;7.90;7.17;;;;;;;18.71;77.42;101182.59;5049221;28;20205;-82
2023/10/02 01:17:48;;;;;;;9.17;6.80;;;;;;;18.70;78.94;101180.88;5063304;28;20207;-84
2023/10/02 01:20:20;;;;;;;10.70;7.37;;;;;;;18.64;77.36;101174.91;5047728;28;20228;-83
2023/10/02 01:22:52;;;;;;;8.77;7.53;;;;;;;18.70;76.85;101200.25;5050604;28;20226;-82
2023/10/02 01:25:23;;;;;;;8.07;7.27;;;;;;;18.75;76.37;101218.56;5064902;28;20272;-81
2023/10/02 01:27:55;;;;;;;8.30;7.10;;;;;;;18.69;77.10;101203.84;5057183;28;20211;-81
2023/10/02 01:30:24;;;;;;;12.47;8.00;;;;;;;18.74;76.92;101201.84;5055480;28;20248;-80
2023/10/02 01:33:06;;;;;;;7.87;7.07;;;;;;;18.77;76.93;101204.38;5043913;28;20197;-80
2023/10/02 01:35:35;;;;;;;7.87;7.00;;;;;;;18.75;78.35;101171.84;5044888;28;20244;-81
2023/10/02 01:38:01;;;;;;;7.57;6.50;;;;;;;18.66;79.70;101138.69;5045760;28;20212;-81
2023/10/02 01:40:34;;;;;;;7.07;6.23;;;;;;;18.58;80.33;101124.06;5045287;28;20229;-80
2023/10/02 01:43:12;;;;;;;7.40;6.70;;;;;;;18.54;80.96;101094.25;5044532;28;20213;-80
2023/10/02 01:45:42;;;;;;;10.20;7.63;;;;;;;18.55;79.83;101098.63;5063652;28;20243;-82
2023/10/02 01:48:12;;;;;;;7.77;6.83;;;;;;;18.47;80.16;101095.41;5063918;28;20231;-80
2023/10/02 01:50:39;;;;;;;9.97;7.47;;;;;;;18.43;80.88;101076.19;5066750;28;20232;-84
2023/10/02 01:53:06;;;;;;;9.63;7.77;;;;;;;18.34;80.55;101079.22;5069307;28;20242;-84
2023/10/02 01:55:35;;;;;;;8.37;7.47;;;;;;;18.39;79.98;101079.91;5067293;28;20237;-83
2023/10/02 01:58:17;;;;;;;7.63;6.37;;;;;;;18.39;80.20;101092.22;5067397;28;20241;-82
2023/10/02 02:00:45;;;;;;;7.77;6.90;;;;;;;18.28;81.88;101054.84;5055006;28;20225;-80
2023/10/02 02:03:15;;;;;;;8.43;7.07;;;;;;;18.28;80.80;101057.47;5063473;28;20212;-81
2023/10/02 02:05:44;;;;;;;9.67;6.97;;;;;;;18.24;80.78;101065.50;5063760;28;20672;-81
2023/10/02 02:08:22;;;;;;;8.60;7.30;;;;;;;18.22;80.60;101056.78;5065932;28;20207;-80
2023/10/02 02:10:51;;;;;;;8.43;6.60;;;;;;;18.24;80.31;101077.88;5065738;28;20222;-82
2023/10/02 02:13:19;;;;;;;10.63;7.63;;;;;;;18.16;82.10;101043.84;5063458;28;20229;-84
2023/10/02 02:15:47;;;;;;;8.30;7.50;;;;;;;18.15;82.39;101038.59;5063740;28;20206;-82
2023/10/02 02:18:14;;;;;;;7.90;6.67;;;;;;;18.01;82.81;101016.25;5063508;28;20230;-82
2023/10/02 02:20:57;;;;;;;9.90;7.60;;;;;;;17.90;81.88;101036.97;5066277;28;20239;-84
2023/10/02 02:23:26;;;;;;;7.77;6.87;;;;;;;18.00;81.83;101026.88;5059778;28;20228;-84
2023/10/02 02:25:54;;;;;;;8.23;7.37;;;;;;;17.96;82.32;101025.31;5049009;28;20229;-84
2023/10/02 02:28:22;;;;;;;10.03;7.60;;;;;;;18.04;80.89;101047.81;5048077;28;20215;-82
2023/10/02 02:30:48;;;;;;;9.80;7.23;;;;;;;18.12;82.02;101039.59;5044367;28;20220;-83
2023/10/02 02:33:15;;;;;;;9.07;7.10;;;;;;;18.08;80.82;101043.28;5043133;28;20216;-83
2023/10/02 02:35:44;;;;;;;8.30;7.07;;;;;;;18.11;81.84;101037.88;5043248;28;20243;-79
2023/10/02 02:38:14;;;;;;;9.80;7.33;;;;;;;17.96;82.14;101030.59;5044357;28;20202;-80
2023/10/02 02:40:41;;;;;;;8.57;7.00;;;;;;;17.98;81.08;101047.22;5044733;28;20355;-80
2023/10/02 02:43:19;;;;;;;7.60;6.80;;;;;;;18.08;81.34;101038.00;5050321;28;20214;-80
2023/10/02 02:45:46;;;;;;;9.23;7.33;;;;;;;17.97;82.73;101025.22;5053995;28;20211;-82
2023/10/02 02:48:15;;;;;;;9.53;7.83;;;;;;;17.99;81.61;101027.81;5048503;28;20206;-84
2023/10/02 02:50:42;;;;;;;9.20;7.33;;;;;;;18.02;82.09;101028.53;5051248;28;20239;-84
2023/10/02 02:53:22;;;;;;;7.90;7.10;;;;;;;18.04;82.11;101029.34;5051545;28;20217;-80
2023/10/02 02:56:10;;;;;;;9.70;7.20;;;;;;;18.01;82.16;101020.66;5061254;28;20212;-81
2023/10/02 02:58:39;;;;;;;7.83;7.03;;;;;;;17.95;83.30;101005.94;5069022;28;20224;-82
2023/10/02 03:01:11;;;;;;;9.87;7.60;;;;;;;17.97;82.17;101024.34;5068056;28;20238;-80
2023/10/02 03:03:41;;;;;;;8.47;7.40;;;;;;;17.99;82.14;101030.44;5068276;28;20674;-81
2023/10/02 03:06:16;;;;;;;9.50;8.10;;;;;;;17.99;82.28;101026.00;5069342;28;20223;-80
2023/10/02 03:08:44;;;;;;;9.03;7.17;;;;;;;17.97;81.61;101030.50;5066968;28;20242;-80
2023/10/02 03:11:11;;;;;;;8.07;7.27;;;;;;;17.91;83.04;101022.81;5050109;28;20249;-82
2023/10/02 03:13:40;;;;;;;9.80;8.37;;;;;;;17.98;82.63;101013.75;5052550;28;20214;-80
2023/10/02 03:16:12;;;;;;;8.67;7.77;;;;;;;18.03;82.25;101016.19;5049891;28;20596;-83
2023/10/02 03:18:43;;;;;;;9.00;7.30;;;;;;;18.05;81.87;101019.63;5050758;28;20241;-82
2023/10/02 03:21:15;;;;;;;8.10;7.27;;;;;;;17.99;82.40;101012.78;5070237;28;20234;-83
2023/10/02 03:23:43;;;;;;;8.63;7.57;;;;;;;18.02;81.40;101032.97;5068879;28;20661;-81
2023/10/02 03:26:26;;;;;;;9.30;7.70;;;;;;;18.07;80.98;101049.47;5051248;28;20206;-83
2023/10/02 03:29:00;;;;;;;8.50;7.40;;;;;;;18.02;82.00;101030.34;5061773;28;20226;-82
2023/10/02 03:31:36;;;;;;;9.77;7.70;;;;;;;18.00;82.25;101017.19;5069744;28;20265;-81
2023/10/02 03:34:25;;;;;;;8.07;7.20;;;;;;;18.04;82.21;101018.78;5068733;28;20213;-81
2023/10/02 03:36:50;;;;;;;10.20;7.50;;;;;;;17.95;83.12;101000.63;5069529;28;20207;-81
2023/10/02 03:39:51;;;;;;;8.90;7.50;;;;;;;17.95;82.97;100997.16;5069271;28;20217;-82
2023/10/02 03:42:12;;;;;;;8.70;7.67;;;;;;;17.89;82.85;100992.13;5068879;28;20289;-82
2023/10/02 03:44:40;;;;;;;7.40;6.60;;;;;;;17.92;82.81;100991.97;5070298;28;20646;-83
2023/10/02 03:47:07;;;;;;;8.10;7.30;;;;;;;17.92;83.02;100981.41;5055567;28;20215;-83
2023/10/02 03:49:34;;;;;;;10.17;7.50;;;;;;;17.95;83.20;100981.31;5050401;28;20232;-81
2023/10/02 03:52:00;;;;;;;8.80;7.43;;;;;;;17.94;83.26;100982.22;5069755;28;20216;-81
2023/10/02 03:54:29;;;;;;;8.07;6.67;;;;;;;17.89;83.38;100977.13;5069998;28;20272;-82
2023/10/02 03:56:56;;;;;;;10.13;7.43;;;;;;;17.85;83.62;100965.81;5057829;28;20204;-80
2023/10/02 03:59:26;;;;;;;8.43;7.00;;;;;;;17.77;83.90;100954.69;5049107;28;20209;-82
2023/10/02 04:01:57;;;;;;;8.03;7.07;;;;;;;17.77;84.18;100956.47;5069011;28;20217;-81
2023/10/02 04:04:24;;;;;;;6.67;6.00;;;;;;;17.69;84.48;100950.63;5068390;28;20217;-81
2023/10/02 04:06:54;;;;;;;8.60;7.57;;;;;;;17.66;84.46;100936.66;5069078;28;20262;-83
2023/10/02 04:09:23;;;;;;;8.43;7.50;;;;;;;17.63;84.85;100928.84;5068373;28;20231;-84
2023/10/02 04:11:51;;;;;;;7.30;6.60;;;;;;;17.65;84.79;100937.56;5069917;28;20207;-84
2023/10/02 04:14:18;;;;;;;8.73;7.83;;;;;;;17.62;84.51;100931.53;5068007;28;20214;-83
2023/10/02 04:16:47;;;;;;;8.50;7.60;;;;;;;17.64;84.51;100937.59;5068135;28;20205;-82
2023/10/02 04:19:15;;;;;;;8.77;7.40;;;;;;;17.62;84.79;100937.69;5067719;28;20206;-82
2023/10/02 04:21:42;;;;;;;8.67;7.20;;;;;;;17.63;84.71;100930.63;5068216;28;20206;-83
2023/10/02 04:24:09;;;;;;;8.90;7.50;;;;;;;17.61;84.54;100935.97;5068284;28;20212;-82
2023/10/02 04:26:36;;;;;;;8.50;7.60;;;;;;;17.63;84.33;100938.53;5068190;28;20631;-81
2023/10/02 04:29:14;;;;;;;7.40;6.47;;;;;;;17.53;85.53;100916.09;5070054;28;20205;-83
2023/10/02 04:31:44;;;;;;;7.87;6.83;;;;;;;17.51;85.31;100918.78;5070079;28;20758;-80
2023/10/02 04:34:16;;;;;;;8.70;7.90;;;;;;;17.51;85.10;100913.50;5068725;28;20270;-82
2023/10/02 04:36:44;;;;;;;8.53;7.33;;;;;;;17.55;84.51;100928.28;5068903;28;20211;-82
2023/10/02 04:44:44;;;;;;;8.93;7.67;;;;;;;17.49;84.99;100920.63;5065394;28;20230;-82
2023/10/02 04:47:17;;;;;;;8.80;7.23;;;;;;;17.51;85.25;100923.19;5076109;28;20242;-85
2023/10/02 04:50:33;;;;;;;7.90;7.00;;;;;;;17.51;85.25;100923.19;5046307;28;20233;-82
2023/10/02 04:52:53;;;;;;;9.17;7.17;;;;;;;17.46;85.50;100926.88;5053729;28;20290;-83
2023/10/02 04:55:24;;;;;;;7.50;6.77;;;;;;;17.43;85.65;100921.72;5051897;28;20215;-83
2023/10/02 04:57:52;;;;;;;9.00;7.77;;;;;;;17.43;85.83;100923.50;5057172;28;20253;-80
2023/10/02 05:00:32;;;;;;;8.97;7.10;;;;;;;17.40;86.16;100919.22;5057181;28;20759;-83
2023/10/02 05:03:09;;;;;;;8.93;7.10;;;;;;;17.39;85.85;100917.47;5058052;28;20218;-83
2023/10/02 05:05:42;;;;;;;8.57;6.87;;;;;;;17.35;85.79;100922.94;5046504;28;20206;-83
2023/10/02 05:08:18;;;;;;;10.97;7.30;;;;;;;17.34;85.75;100927.34;5043452;28;20232;-82
2023/10/02 05:10:56;;;;;;;7.37;6.63;;;;;;;17.32;86.08;100921.28;5049684;28;20243;-84
2023/10/02 05:16:11;;;;;;;8.37;7.47;;;;;;;17.35;85.95;100913.25;5049401;28;20301;-82
2023/10/02 05:18:37;;;;;;;9.20;7.73;;;;;;;17.35;85.86;100917.69;5050360;28;20594;-84
2023/10/02 05:21:04;;;;;;;8.57;7.67;;;;;;;17.31;85.85;100922.22;5050043;28;20254;-83
2023/10/02 05:23:31;;;;;;;9.10;6.97;;;;;;;17.29;86.08;100921.41;5051658;28;20214;-83
2023/10/02 05:26:00;;;;;;;9.67;7.90;;;;;;;17.27;86.08;100915.34;5052028;28;20214;-83
2023/10/02 05:28:42;;;;;;;8.13;7.10;;;;;;;17.25;86.10;100919.81;5050831;28;20257;-81
2023/10/02 05:31:09;;;;;;;8.03;7.23;;;;;;;17.24;86.29;100918.97;5050440;28;20235;-83
2023/10/02 05:33:37;;;;;;;10.27;7.90;;;;;;;17.24;86.03;100904.88;5054169;28;20572;-81
2023/10/02 05:36:08;;;;;;;9.67;7.90;;;;;;;17.25;86.41;100903.97;5049544;28;20266;-83
2023/10/02 05:38:38;;;;;;;13.63;7.57;;;;;;;17.26;86.35;100901.28;5050587;28;20205;-83
2023/10/02 05:41:12;;;;;;;8.87;7.23;;;;;;;17.30;86.50;100899.38;5049333;28;20225;-85
2023/10/02 05:43:55;;;;;;;9.57;7.70;;;;;;;17.37;86.00;100906.13;5053683;28;20583;-84
2023/10/02 05:46:22;;;;;;;10.63;7.60;;;;;;;17.39;86.07;100901.66;5054875;28;20205;-84
2023/10/02 05:49:00;;;;;;;8.00;7.17;;;;;;;17.37;86.77;100897.38;5066788;28;20261;-85
2023/10/02 05:51:45;;;;;;;9.53;7.77;;;;;;;17.35;87.12;100881.59;5050020;28;20222;-84
2023/10/02 05:54:13;;;;;;;9.33;8.33;;;;;;;17.41;86.89;100888.41;5050075;28;20578;-86
2023/10/02 05:56:40;;;;;;;8.73;7.77;;;;;;;17.38;87.71;100875.31;5048582;28;20223;-83
2023/10/02 05:59:07;;;;;;;8.90;7.77;;;;;;;17.38;87.70;100870.03;5051461;28;20231;-85
2023/10/02 06:01:35;;;;;;;9.50;7.00;;;;;;;17.38;88.35;100863.00;5049991;28;20254;-84
2023/10/02 06:04:04;;;;;;;9.30;7.53;;;;;;;17.40;88.70;100857.63;5050838;28;20261;-84
2023/10/02 06:06:35;;;;;;;8.43;7.13;;;;;;;17.49;87.66;100872.25;5050359;28;20228;-86
2023/10/02 06:09:12;;;;;;;8.97;7.07;;;;;;;17.45;88.58;100868.88;5052328;28;20211;-85
2023/10/02 06:14:22;;;;;;;7.97;7.17;;;;;;;17.54;87.34;100901.94;5053270;28;20205;-86
2023/10/02 06:16:49;;;;;;;11.10;7.87;;;;;;;17.63;86.64;100910.34;5054221;28;20275;-84
2023/10/02 06:19:15;;;;;;;9.40;8.27;;;;;;;17.70;87.54;100912.75;5060636;28;20215;-82
2023/10/02 06:21:46;;;;;;;9.70;7.40;;;;;;;17.68;87.06;100907.53;5064141;28;20201;-83
2023/10/02 06:24:45;;;;;;;9.07;7.20;;;;;;;17.66;88.87;100889.13;5051655;28;20321;-84
2023/10/02 06:27:17;;;;;;;8.63;6.80;;;;;;;17.68;89.24;100883.78;5057884;28;20298;-83
2023/10/02 06:30:25;;;;;;;8.57;7.33;;;;;;;17.60;88.86;100872.66;5140880;22;20270;-88
2023/10/02 06:32:53;;;;;;;9.83;7.40;;;;;;;17.71;88.97;100872.22;5054813;28;20208;-85
2023/10/02 06:35:29;;;;;;;8.93;8.03;;;;;;;17.78;89.40;100876.31;5057223;28;20623;-86
2023/10/02 06:38:15;;;;;;;8.17;7.37;;;;;;;17.81;89.37;100858.56;5061169;28;20195;-84
2023/10/02 06:40:55;;;;;;;8.30;7.43;;;;;;;17.86;90.04;100864.56;5060278;28;20710;-85
2023/10/02 06:43:29;;;;;;;9.23;7.70;;;;;;;17.88;89.25;100869.78;5069027;28;20644;-86
2023/10/02 06:46:06;;;;;;;8.27;7.40;;;;;;;17.91;90.55;100851.13;5067756;28;20576;-86
2023/10/02 06:48:34;;;;;;;8.23;7.03;;;;;;;17.94;91.26;100850.13;5067668;28;20296;-84
2023/10/02 06:51:01;;;;;;;9.73;8.03;;;;;;;17.95;92.25;100836.03;5066360;28;20258;-85
2023/10/02 06:53:28;;;;;;;9.07;8.17;;;;;;;18.01;92.48;100822.53;5067894;28;20204;-84
2023/10/02 06:56:03;;;;;;;9.77;7.60;;;;;;;18.03;92.00;100823.34;5054528;28;20290;-85
2023/10/02 06:58:46;;;;;;;10.23;8.20;;;;;;;18.02;92.37;100826.91;5059242;28;20211;-84
2023/10/02 07:01:13;;;;;;;9.23;8.17;;;;;;;17.95;90.26;100854.50;5062116;28;20294;-83
2023/10/02 07:03:40;;;;;;;9.67;7.40;;;;;;;18.06;91.99;100847.00;5066061;28;20658;-84
2023/10/02 07:06:07;;;;;;;8.87;7.73;;;;;;;18.07;91.38;100851.34;5066952;28;20784;-83
2023/10/02 07:08:36;;;;;;;10.60;8.77;;;;;;;18.12;91.95;100848.50;5067385;28;20238;-83
2023/10/02 07:11:10;;;;;;;10.40;7.70;;;;;;;18.08;88.45;100911.19;5067859;28;20340;-83
2023/10/02 07:13:50;;;;;;;11.23;8.87;;;;;;;18.19;87.56;100932.69;5067849;28;20289;-84
2023/10/02 07:16:17;;;;;;;9.97;7.53;;;;;;;18.27;88.86;100916.53;5056309;28;20239;-85
2023/10/02 07:18:49;;;;;;;8.60;7.50;;;;;;;18.37;89.09;100909.06;5068060;28;20200;-84
2023/10/02 07:21:21;;;;;;;7.47;6.67;;;;;;;18.43;89.72;100900.84;5068842;28;20227;-88
2023/10/02 07:23:48;;;;;;;8.40;7.33;;;;;;;18.53;90.21;100904.81;5057350;28;20232;-86
2023/10/02 07:26:17;;;;;;;10.27;7.23;;;;;;;18.64;89.73;100901.69;5068444;28;20216;-86
2023/10/02 07:28:51;;;;;;;9.50;7.80;;;;;;;18.79;89.72;100906.31;5050660;28;20215;-87
2023/10/02 07:31:18;;;;;;;8.57;7.67;;;;;;;18.89;90.89;100895.28;5058162;28;20233;-88
2023/10/02 07:33:45;;;;;;;10.57;7.40;;;;;;;18.97;89.79;100895.81;5042567;28;20209;-85
2023/10/02 07:36:14;;;;;;;8.90;7.17;;;;;;;18.81;87.23;100932.69;5039863;28;20298;-84
2023/10/02 07:38:42;;;;;;;9.60;7.87;;;;;;;18.90;88.69;100940.19;5042331;28;20205;-84
2023/10/02 07:41:09;;;;;;;8.93;8.03;;;;;;;18.87;85.25;100974.75;5073495;28;20215;-83
2023/10/02 07:43:36;;;;;;;12.57;8.17;;;;;;;18.94;84.48;101020.28;5071812;28;20225;-81
2023/10/02 07:46:14;;;;;;;12.47;7.97;;;;;;;18.83;82.31;101065.75;5071550;28;20211;-81
2023/10/02 07:48:41;;;;;;;10.37;7.73;;;;;;;18.93;83.60;101048.53;5067913;28;20197;-84
2023/10/02 07:51:09;;;;;;;9.17;8.27;;;;;;;18.99;83.67;101056.22;5058635;28;20232;-83
2023/10/02 07:53:43;;;;;;;9.60;8.00;;;;;;;19.08;85.71;101017.88;5059837;28;20232;-83
2023/10/02 07:56:12;;;;;;;9.07;7.67;;;;;;;18.95;83.89;101017.59;5058768;28;20264;-83
2023/10/02 07:58:39;;;;;;;8.67;7.77;;;;;;;19.02;84.83;101003.13;5058970;28;20209;-83
2023/10/02 08:01:11;;;;;;;9.40;8.40;;;;;;;18.93;86.37;100974.47;5057856;28;20695;-82
2023/10/02 08:03:43;;;;;;;9.20;7.87;;;;;;;19.02;84.20;101019.00;5058809;28;20737;-83
2023/10/02 08:06:33;;;;;;;9.43;7.77;;;;;;;19.11;82.46;101041.56;5058325;28;20205;-84
2023/10/02 08:11:41;;;;;;;9.00;8.07;;;;;;;19.28;82.29;101079.66;5058503;28;20240;-85
2023/10/02 08:14:34;;;;;;;11.77;8.07;;;;;;;19.31;80.65;101075.09;5061611;28;20252;-85
2023/10/02 08:16:59;;;;;;;10.90;8.53;;;;;;;19.39;78.78;101139.13;5042977;28;20213;-84
2023/10/02 08:19:26;;;;;;;9.27;7.87;;;;;;;19.54;79.39;101136.72;5056853;28;20205;-84
2023/10/02 08:21:53;;;;;;;10.47;7.50;;;;;;;19.60;79.65;101141.72;5059155;28;20251;-83
2023/10/02 08:24:20;;;;;;;9.23;7.80;;;;;;;19.59;77.76;101164.72;5056044;28;20232;-83
2023/10/02 08:26:47;;;;;;;9.97;8.00;;;;;;;19.69;77.58;101178.41;5050068;28;20235;-79
2023/10/02 08:29:16;;;;;;;16.17;8.40;;;;;;;19.66;80.03;101130.84;5063910;28;20216;-83
2023/10/02 08:31:47;;;;;;;11.67;8.00;;;;;;;19.68;78.85;101139.59;5071197;28;20605;-84
2023/10/02 08:34:19;;;;;;;9.77;8.17;;;;;;;19.61;79.03;101154.91;5064116;28;20655;-82
2023/10/02 08:36:46;;;;;;;9.73;8.57;;;;;;;19.55;82.38;101082.84;5071863;28;20283;-83
2023/10/02 08:39:12;;;;;;;8.80;7.90;;;;;;;19.61;81.96;101074.59;5063770;28;20205;-84
2023/10/02 08:41:44;;;;;;;9.37;8.47;;;;;;;19.64;80.73;101077.09;5059983;28;20197;-84
2023/10/02 08:44:12;;;;;;;9.33;8.13;;;;;;;19.65;80.75;101073.53;5054280;28;20205;-82
2023/10/02 08:46:42;;;;;;;8.80;7.37;;;;;;;19.72;78.81;101111.22;5058308;28;20685;-82
2023/10/02 08:49:10;;;;;;;10.27;7.63;;;;;;;19.78;77.31;101151.53;5056259;28;20274;-83
2023/10/02 08:51:38;;;;;;;8.83;7.90;;;;;;;19.84;79.10;101140.66;5051695;28;20657;-83
2023/10/02 08:54:07;;;;;;;12.83;8.23;;;;;;;19.89;78.71;101132.47;5043393;28;20206;-85
2023/10/02 08:56:43;;;;;;;9.77;7.70;;;;;;;19.93;79.31;101127.91;5046005;28;20208;-84
2023/10/02 08:59:16;;;;;;;9.57;8.23;;;;;;;19.90;77.70;101154.53;5057395;28;20990;-83
2023/10/02 09:01:46;;;;;;;10.80;8.07;;;;;;;19.98;76.87;101163.88;5054599;28;20201;-84
2023/10/02 09:04:32;;;;;;;11.10;8.00;;;;;;;20.08;77.54;101171.38;5057352;28;20227;-82
2023/10/02 09:07:14;;;;;;;8.63;7.50;;;;;;;20.11;77.00;101168.59;5057688;28;20589;-82
2023/10/02 09:09:45;;;;;;;9.10;8.10;;;;;;;20.20;77.36;101171.66;5059104;28;20232;-83
2023/10/02 09:12:15;;;;;;;8.63;7.53;;;;;;;20.25;75.52;101192.63;5060639;28;20228;-85
2023/10/02 09:14:42;;;;;;;10.83;7.80;;;;;;;20.31;76.94;101189.69;5065415;28;20209;-85
2023/10/02 09:17:16;;;;;;;8.43;7.33;;;;;;;20.41;75.60;101206.03;5061549;28;20205;-86
2023/10/02 09:19:48;;;;;;;9.60;7.93;;;;;;;20.41;75.30;101221.94;5056437;28;20221;-83
2023/10/02 09:22:17;;;;;;;11.70;8.87;;;;;;;20.44;74.35;101240.38;5053853;28;20279;-83
2023/10/02 09:24:55;;;;;;;10.07;7.90;;;;;;;20.54;74.21;101256.72;5051050;28;20232;-85
2023/10/02 09:27:30;;;;;;;9.90;8.40;;;;;;;20.63;73.98;101267.78;5047580;28;20285;-86
2023/10/02 09:30:19;;;;;;;9.60;8.40;;;;;;;20.59;72.50;101276.81;5053119;28;20231;-84
2023/10/02 09:32:53;;;;;;;10.97;7.63;;;;;;;20.76;72.46;101293.72;5053200;28;20202;-83
2023/10/02 09:35:39;;;;;;;8.60;7.80;;;;;;;20.83;72.50;101306.63;5048956;28;20277;-85
2023/10/02 09:38:10;;;;;;;10.00;8.23;;;;;;;20.78;71.85;101286.53;5054070;28;20213;-80
2023/10/02 09:40:54;;;;;;;10.27;7.83;;;;;;;20.91;71.49;101319.53;5054217;28;20278;-83
2023/10/02 09:43:22;;;;;;;10.07;7.70;;;;;;;21.06;70.90;101325.03;5051812;28;20206;-82
2023/10/02 09:45:50;;;;;;;10.13;7.90;;;;;;;21.10;71.36;101322.13;5057334;28;20212;-84
2023/10/02 09:51:08;;;;;;;10.50;8.53;;;;;;;21.21;70.68;101324.28;5055855;28;20225;-81
2023/10/02 09:53:41;;;;;;;8.37;7.47;;;;;;;21.38;70.69;101334.91;5057470;28;20230;-82
2023/10/02 09:56:15;;;;;;;13.40;8.60;;;;;;;21.46;71.95;101320.41;5057749;28;20649;-84
2023/10/02 09:58:52;;;;;;;10.60;8.67;;;;;;;21.53;71.22;101311.22;5057349;28;20212;-84
2023/10/02 10:01:37;;;;;;;10.93;8.77;;;;;;;21.57;71.14;101299.50;5056321;28;20824;-84
2023/10/02 10:07:06;;;;;;;9.30;7.77;;;;;;;21.67;69.90;101334.44;5051725;28;20227;-84
2023/10/02 10:12:50;;;;;;;13.20;8.93;;;;;;;21.81;69.59;101359.34;5048467;28;20316;-82
2023/10/02 10:15:23;;;;;;;11.37;8.63;;;;;;;21.89;70.36;101340.34;5051286;28;20210;-84
2023/10/02 10:17:56;;;;;;;9.10;7.80;;;;;;;22.00;70.16;101313.19;5053302;28;20206;-84
2023/10/02 10:20:23;;;;;;;10.07;8.70;;;;;;;21.98;72.34;101254.78;5052760;28;20282;-85
2023/10/02 10:22:55;;;;;;;9.57;7.43;;;;;;;22.07;70.03;101303.94;5054638;28;20571;-84
2023/10/02 10:25:45;;;;;;;9.20;8.20;;;;;;;22.09;67.96;101349.94;5054907;28;20208;-83
2023/10/02 10:28:27;;;;;;;10.87;8.00;;;;;;;22.26;67.38;101385.44;5055782;28;20209;-83
2023/10/02 10:30:56;;;;;;;9.20;8.10;;;;;;;22.35;68.56;101372.50;5055406;28;20227;-83
2023/10/02 10:33:40;;;;;;;9.47;8.43;;;;;;;22.40;68.66;101354.50;5055501;28;20288;-84
2023/10/02 10:36:37;;;;;;;9.00;7.67;;;;;;;22.45;67.60;101372.03;5055123;28;20204;-82
2023/10/02 10:39:43;;;;;;;10.03;7.90;;;;;;;22.34;66.35;101388.56;5055945;28;20214;-83
2023/10/02 10:42:10;;;;;;;9.03;7.70;;;;;;;22.44;66.39;101395.13;5026211;28;20212;-83
2023/10/02 10:44:43;;;;;;;9.90;7.90;;;;;;;22.55;66.77;101407.84;5053873;28;20257;-84
2023/10/02 10:47:14;;;;;;;11.20;8.50;;;;;;;22.72;66.86;101399.81;5045486;28;20588;-84
2023/10/02 10:50:11;;;;;;;9.87;8.17;;;;;;;22.76;65.82;101412.00;5049915;28;20232;-82
2023/10/02 10:52:39;;;;;;;9.13;7.13;;;;;;;22.90;65.43;101429.03;5057002;28;20235;-83
2023/10/02 10:55:32;;;;;;;9.33;7.57;;;;;;;22.96;65.59;101410.91;5055172;28;20209;-83
2023/10/02 10:58:01;;;;;;;10.80;8.20;;;;;;;22.99;66.96;101373.47;5061928;28;20219;-84
2023/10/02 11:00:31;;;;;;;8.57;7.13;;;;;;;23.06;66.82;101379.31;5062380;28;20641;-83
2023/10/02 11:03:01;;;;;;;9.70;8.23;;;;;;;23.11;66.64;101387.94;5061611;28;20217;-82
2023/10/02 11:05:33;;;;;;;12.23;7.97;;;;;;;23.19;65.51;101400.78;5061198;28;20239;-82
2023/10/02 11:08:22;;;;;;;9.00;7.97;;;;;;;23.28;65.83;101412.75;5049504;28;20207;-82
2023/10/02 11:10:52;;;;;;;8.30;7.40;;;;;;;23.27;64.10;101424.31;5045044;28;20230;-83
2023/10/02 11:13:25;;;;;;;9.43;7.50;;;;;;;23.35;64.02;101449.59;5045977;28;20437;-82
2023/10/02 11:16:07;;;;;;;8.50;7.60;;;;;;;23.46;63.92;101462.31;5071722;28;20648;-82
2023/10/02 11:18:38;;;;;;;11.07;8.50;;;;;;;23.59;63.57;101457.16;5053541;28;20198;-82
2023/10/02 11:21:22;;;;;;;8.80;7.90;;;;;;;23.73;63.34;101483.03;5044494;28;20313;-82
2023/10/02 11:23:49;;;;;;;9.40;8.40;;;;;;;23.84;62.89;101490.41;5051093;28;20223;-82
2023/10/02 11:26:23;;;;;;;9.97;8.53;;;;;;;23.99;63.57;101484.19;5054624;28;20211;-83
2023/10/02 11:28:50;;;;;;;8.67;7.70;;;;;;;23.99;62.38;101492.19;5052415;28;20212;-83
2023/10/02 11:31:32;;;;;;;9.57;7.87;;;;;;;24.21;62.24;101477.59;5063934;28;20247;-81
2023/10/02 11:34:00;;;;;;;10.50;7.73;;;;;;;24.54;62.04;101483.59;5063652;28;20262;-82
2023/10/02 11:36:28;;;;;;;8.03;7.23;;;;;;;24.64;60.56;101531.06;5063014;28;20670;-83
2023/10/02 11:38:55;;;;;;;9.30;8.17;;;;;;;25.01;58.49;101558.19;5056072;28;20615;-83
2023/10/02 11:41:22;;;;;;;8.93;7.90;;;;;;;25.47;58.67;101576.72;5043178;28;20221;-83
2023/10/02 11:43:48;;;;;;;8.33;7.60;;;;;;;25.79;57.81;101597.84;5048232;28;20647;-83
2023/10/02 11:46:16;;;;;;;9.23;8.33;;;;;;;25.88;57.75;101627.56;5070868;28;20201;-83
2023/10/02 11:48:43;;;;;;;9.40;7.20;;;;;;;25.66;57.50;101612.03;5043673;28;20241;-83
2023/10/02 11:51:10;;;;;;;7.20;6.50;;;;;;;24.92;57.45;101643.28;5044249;28;20256;-82
2023/10/02 11:53:37;;;;;;;8.20;7.30;;;;;;;25.07;58.64;101609.44;5059140;28;20884;-82
2023/10/02 11:56:03;;;;;;;7.50;6.80;;;;;;;24.94;58.42;101600.47;5042546;28;20264;-82
2023/10/02 11:58:30;;;;;;;8.13;7.33;;;;;;;24.90;58.90;101580.25;5043915;28;20467;-82
2023/10/02 12:00:57;;;;;;;8.30;7.40;;;;;;;24.80;59.25;101549.69;5059059;28;20308;-83
2023/10/02 12:03:25;;;;;;;8.40;6.83;;;;;;;24.76;59.47;101538.34;5065301;28;20212;-83
2023/10/02 12:05:51;;;;;;;9.57;7.00;;;;;;;24.71;60.04;101522.59;5064111;28;20197;-83
2023/10/02 12:08:20;;;;;;;9.07;7.00;;;;;;;24.60;59.37;101509.06;5062980;28;20216;-83
2023/10/02 12:10:47;;;;;;;7.63;6.73;;;;;;;24.77;61.28;101500.84;5062337;28;20235;-82